createdAt,value
2018-08-03T00:01:55.592Z,63.10
2018-08-03T00:03:59.548Z,63.10
2018-08-03T00:08:11.063Z,63.20
2018-08-03T00:10:16.298Z,63.00
2018-08-03T00:12:21.395Z,63.10
2018-08-03T00:14:27.887Z,63.00
2018-08-03T00:16:32.668Z,62.90
2018-08-03T00:18:37.237Z,62.30
2018-08-03T00:20:42.811Z,62.80
2018-08-03T00:22:48.777Z,62.60
2018-08-03T00:24:52.752Z,62.60
2018-08-03T00:26:57.271Z,62.50
2018-08-03T00:29:01.404Z,62.50
2018-08-03T00:31:06.584Z,62.20
2018-08-03T00:33:10.726Z,62.00
2018-08-03T00:35:15.503Z,62.10
2018-08-03T00:37:20.593Z,62.00
2018-08-03T00:42:28.079Z,62.00
2018-08-03T00:44:33.766Z,62.10
2018-08-03T00:46:38.982Z,62.00
2018-08-03T00:48:43.010Z,62.20
2018-08-03T00:50:46.930Z,62.20
2018-08-03T00:52:51.279Z,62.30
2018-08-03T00:54:55.743Z,62.40
2018-08-03T00:57:00.353Z,62.40
2018-08-03T00:59:04.389Z,62.40
2018-08-03T01:01:08.480Z,62.30
2018-08-03T01:03:12.560Z,62.40
2018-08-03T01:05:16.881Z,63.10
2018-08-03T01:07:22.748Z,62.40
2018-08-03T01:09:31.919Z,62.70
2018-08-03T01:11:36.358Z,62.70
2018-08-03T01:13:40.415Z,63.00
2018-08-03T01:15:44.390Z,63.00
2018-08-03T01:17:48.365Z,63.00
2018-08-03T01:19:52.480Z,62.90
2018-08-03T01:21:56.876Z,62.90
2018-08-03T01:24:02.296Z,62.70
2018-08-03T01:26:06.609Z,62.60
2018-08-03T01:28:10.637Z,62.70
2018-08-03T01:30:16.570Z,63.00
2018-08-03T01:32:20.632Z,62.80
2018-08-03T01:34:25.513Z,62.80
2018-08-03T01:36:30.676Z,62.70
2018-08-03T01:38:34.599Z,62.80
2018-08-03T01:40:39.175Z,62.70
2018-08-03T01:42:43.414Z,62.90
2018-08-03T01:44:47.618Z,63.10
2018-08-03T01:46:51.830Z,63.00
2018-08-03T01:48:55.800Z,63.00
2018-08-03T01:53:03.824Z,63.70
2018-08-03T01:55:07.755Z,63.70
2018-08-03T01:57:11.719Z,64.20
2018-08-03T01:59:15.756Z,64.20
2018-08-03T02:01:19.654Z,64.30
2018-08-03T02:03:24.350Z,64.90
2018-08-03T02:05:28.699Z,65.20
2018-08-03T02:07:32.701Z,65.20
2018-08-03T02:09:36.735Z,65.60
2018-08-03T02:11:43.592Z,65.70
2018-08-03T02:13:47.656Z,65.80
2018-08-03T02:15:51.738Z,65.90
2018-08-03T02:17:56.999Z,66.10
2018-08-03T02:20:01.001Z,66.10
2018-08-03T02:22:04.991Z,66.10
2018-08-03T02:24:08.958Z,66.20
2018-08-03T02:26:12.931Z,66.30
2018-08-03T02:28:16.826Z,66.40
2018-08-03T02:30:20.833Z,66.40
2018-08-03T02:32:25.308Z,66.40
2018-08-03T02:34:29.319Z,66.60
2018-08-03T02:36:33.703Z,66.80
2018-08-03T02:38:37.800Z,66.80
2018-08-03T02:40:42.790Z,66.60
2018-08-03T02:42:47.075Z,66.80
2018-08-03T02:44:51.222Z,66.60
2018-08-03T02:46:55.290Z,66.40
2018-08-03T02:51:03.494Z,66.60
2018-08-03T02:53:07.517Z,66.70
2018-08-03T02:55:12.880Z,66.70
2018-08-03T02:57:16.834Z,66.60
2018-08-03T02:59:20.855Z,66.70
2018-08-03T03:01:25.112Z,66.60
2018-08-03T03:03:29.208Z,66.20
2018-08-03T03:05:33.201Z,66.70
2018-08-03T03:07:37.538Z,67.20
2018-08-03T03:09:42.496Z,67.30
2018-08-03T03:11:47.171Z,67.30
2018-08-03T03:13:52.450Z,67.90
2018-08-03T03:15:56.654Z,68.20
2018-08-03T03:18:00.614Z,67.80
2018-08-03T03:20:04.645Z,67.40
2018-08-03T03:22:09.103Z,67.60
2018-08-03T03:24:13.194Z,68.70
2018-08-03T03:26:17.603Z,69.00
2018-08-03T03:28:22.547Z,69.40
2018-08-03T03:30:26.552Z,69.30
2018-08-03T03:32:30.984Z,69.00
2018-08-03T03:34:35.167Z,70.40
2018-08-03T03:36:39.251Z,69.50
2018-08-03T03:38:43.639Z,69.50
2018-08-03T03:40:47.964Z,69.20
2018-08-03T03:42:51.940Z,69.20
2018-08-03T03:44:55.958Z,69.70
2018-08-03T03:47:00.045Z,69.20
2018-08-03T03:49:04.037Z,69.20
2018-08-03T03:51:08.582Z,69.20
2018-08-03T03:53:12.543Z,69.40
2018-08-03T03:55:16.539Z,69.70
2018-08-03T03:57:20.809Z,70.20
2018-08-03T03:59:24.974Z,71.10
2018-08-03T04:01:28.908Z,71.70
2018-08-03T04:06:50.421Z,72.10
2018-08-03T04:08:54.691Z,72.30
2018-08-03T04:10:58.755Z,72.00
2018-08-03T04:13:09.099Z,72.10
2018-08-03T04:15:16.893Z,71.80
2018-08-03T04:17:21.662Z,71.80
2018-08-03T04:19:25.925Z,71.50
2018-08-03T04:21:31.333Z,70.60
2018-08-03T04:23:37.558Z,70.20
2018-08-03T04:25:41.645Z,70.40
2018-08-03T04:27:49.266Z,70.30
2018-08-03T04:29:53.279Z,70.50
2018-08-03T04:31:57.588Z,71.60
2018-08-03T04:34:02.108Z,71.80
2018-08-03T04:36:06.151Z,71.60
2018-08-03T04:38:10.444Z,71.40
2018-08-03T04:40:14.487Z,71.20
2018-08-03T04:42:18.518Z,70.60
2018-08-03T04:44:22.774Z,70.90
2018-08-03T04:46:27.208Z,71.00
2018-08-03T04:48:36.553Z,71.20
2018-08-03T04:50:40.592Z,71.40
2018-08-03T04:52:48.484Z,71.40
2018-08-03T04:55:01.501Z,71.70
2018-08-03T04:57:07.319Z,72.00
2018-08-03T04:59:11.686Z,71.40
2018-08-03T05:03:19.910Z,70.30
2018-08-03T05:05:24.439Z,70.10
2018-08-03T05:09:32.088Z,69.80
2018-08-03T05:11:36.641Z,69.70
2018-08-03T05:13:40.701Z,69.60
2018-08-03T05:15:44.661Z,68.90
2018-08-03T05:17:50.650Z,69.00
2018-08-03T05:19:55.595Z,68.70
2018-08-03T05:22:00.725Z,68.00
2018-08-03T05:24:05.627Z,67.80
2018-08-03T05:26:09.593Z,67.90
2018-08-03T05:28:13.591Z,66.90
2018-08-03T05:30:18.773Z,67.20
2018-08-03T05:32:25.227Z,67.00
2018-08-03T05:34:29.383Z,66.50
2018-08-03T05:36:35.722Z,66.10
2018-08-03T05:38:39.984Z,65.50
2018-08-03T05:40:47.643Z,65.10
2018-08-03T05:42:56.167Z,65.10
2018-08-03T05:45:00.790Z,65.30
2018-08-03T05:47:08.585Z,64.60
2018-08-03T05:49:14.412Z,64.10
2018-08-03T05:51:19.831Z,63.50
2018-08-03T05:53:23.866Z,63.20
2018-08-03T05:55:28.299Z,62.70
2018-08-03T05:57:34.056Z,62.30
2018-08-03T05:59:40.418Z,61.80
2018-08-03T06:01:46.760Z,61.40
2018-08-03T06:03:51.413Z,60.80
2018-08-03T06:05:55.594Z,60.80
2018-08-03T06:08:01.656Z,60.30
2018-08-03T06:10:06.958Z,60.00
2018-08-03T06:12:11.350Z,60.10
2018-08-03T06:14:15.651Z,59.70
2018-08-03T06:16:19.719Z,59.30
2018-08-03T06:18:24.406Z,58.60
2018-08-03T06:20:29.788Z,59.00
2018-08-03T06:24:37.471Z,59.10
2018-08-03T06:26:42.093Z,59.90
2018-08-03T06:28:46.380Z,60.30
2018-08-03T06:30:51.920Z,59.90
2018-08-03T06:32:57.704Z,59.20
2018-08-03T06:35:02.193Z,58.20
2018-08-03T06:37:06.938Z,57.20
2018-08-03T06:39:14.072Z,56.80
2018-08-03T06:41:18.779Z,57.50
2018-08-03T06:43:23.396Z,57.80
2018-08-03T06:45:28.206Z,57.90
2018-08-03T06:47:34.406Z,57.40
2018-08-03T06:49:40.175Z,57.30
2018-08-03T06:51:46.532Z,58.70
2018-08-03T06:53:50.501Z,58.20
2018-08-03T06:55:55.524Z,57.40
2018-08-03T06:58:01.202Z,57.40
2018-08-03T07:00:07.288Z,57.30
2018-08-03T07:02:11.361Z,56.40
2018-08-03T07:04:18.513Z,56.10
2018-08-03T07:06:24.409Z,55.90
2018-08-03T07:08:28.500Z,55.90
2018-08-03T07:10:32.589Z,55.60
2018-08-03T07:12:37.578Z,56.00
2018-08-03T07:14:41.700Z,55.50
2018-08-03T07:16:54.057Z,55.10
2018-08-03T07:18:58.009Z,54.70
2018-08-03T07:21:04.144Z,55.00
2018-08-03T07:23:14.720Z,54.70
2018-08-03T07:25:25.681Z,54.40
2018-08-03T07:27:33.140Z,53.40
2018-08-03T07:29:40.051Z,52.90
2018-08-03T07:31:44.375Z,52.20
2018-08-03T07:33:48.631Z,52.00
2018-08-03T07:36:07.448Z,51.90
2018-08-03T07:38:27.309Z,52.30
2018-08-03T07:40:34.053Z,51.80
2018-08-03T07:42:40.482Z,51.60
2018-08-03T07:44:45.495Z,51.30
2018-08-03T07:46:50.104Z,50.90
2018-08-03T07:48:55.314Z,51.10
2018-08-03T07:51:02.896Z,50.20
2018-08-03T07:53:08.986Z,51.10
2018-08-03T07:55:13.853Z,50.80
2018-08-03T07:57:18.652Z,50.60
2018-08-03T07:59:24.403Z,49.70
2018-08-03T08:01:31.350Z,48.10
2018-08-03T08:03:35.360Z,47.70
2018-08-03T08:05:40.125Z,47.00
2018-08-03T08:07:47.438Z,46.40
2018-08-03T08:09:53.226Z,45.70
2018-08-03T08:11:58.981Z,46.20
2018-08-03T08:14:07.261Z,46.00
2018-08-03T08:16:11.277Z,45.70
2018-08-03T08:18:15.467Z,45.60
2018-08-03T08:20:20.009Z,45.50
2018-08-03T08:22:24.107Z,45.60
2018-08-03T08:24:28.423Z,46.00
2018-08-03T08:26:37.333Z,45.50
2018-08-03T08:28:43.783Z,45.40
2018-08-03T08:30:50.052Z,45.00
2018-08-03T08:32:56.035Z,45.00
2018-08-03T08:35:02.740Z,44.60
2018-08-03T08:37:07.053Z,43.70
2018-08-03T08:39:13.468Z,43.60
2018-08-03T08:41:29.517Z,43.10
2018-08-03T08:43:34.555Z,42.40
2018-08-03T08:45:46.275Z,42.10
2018-08-03T08:47:55.325Z,41.60
2018-08-03T08:50:03.702Z,41.50
2018-08-03T08:52:19.637Z,41.10
2018-08-03T08:54:29.805Z,40.90
2018-08-03T08:56:47.383Z,40.60
2018-08-03T08:59:02.348Z,40.10
2018-08-03T09:01:09.790Z,40.80
2018-08-03T09:07:32.323Z,42.10
2018-08-03T09:09:38.053Z,42.20
2018-08-03T09:11:42.313Z,41.70
2018-08-03T09:13:47.321Z,42.20
2018-08-03T09:15:57.450Z,41.50
2018-08-03T09:20:07.155Z,41.10
2018-08-03T09:22:13.046Z,40.90
2018-08-03T09:24:17.282Z,41.00
2018-08-03T09:26:23.067Z,41.10
2018-08-03T09:28:28.130Z,41.50
2018-08-03T09:30:36.212Z,41.50
2018-08-03T09:32:41.021Z,41.10
2018-08-03T09:34:45.422Z,41.30
2018-08-03T09:36:51.656Z,40.90
2018-08-03T09:38:57.682Z,40.20
2018-08-03T09:41:02.712Z,40.40
2018-08-03T09:43:07.054Z,40.70
2018-08-03T09:48:04.350Z,40.60
2018-08-03T09:50:10.255Z,40.50
2018-08-03T09:52:16.179Z,40.00
2018-08-03T09:54:21.440Z,39.40
2018-08-03T09:56:25.383Z,38.90
2018-08-03T10:00:41.217Z,38.80
2018-08-03T10:02:47.362Z,38.00
2018-08-03T10:04:51.246Z,38.60
2018-08-03T10:06:55.311Z,38.40
2018-08-03T10:09:00.757Z,37.60
2018-08-03T10:11:07.445Z,37.20
2018-08-03T10:13:14.333Z,36.80
2018-08-03T10:15:23.301Z,37.00
2018-08-03T10:17:30.596Z,37.20
2018-08-03T10:19:35.086Z,38.10
2018-08-03T10:21:39.449Z,38.80
2018-08-03T10:23:46.695Z,37.20
2018-08-03T10:25:53.461Z,36.90
2018-08-03T10:27:59.741Z,36.80
2018-08-03T10:30:06.435Z,36.70
2018-08-03T10:32:11.325Z,36.90
2018-08-03T10:34:16.963Z,35.30
2018-08-03T10:36:23.208Z,34.10
2018-08-03T10:38:27.135Z,34.60
2018-08-03T10:40:35.948Z,34.70
2018-08-03T10:42:40.433Z,35.20
2018-08-03T10:46:55.371Z,34.60
2018-08-03T10:49:01.315Z,33.20
2018-08-03T10:51:05.294Z,32.30
2018-08-03T10:53:13.692Z,32.80
2018-08-03T10:55:18.331Z,33.50
2018-08-03T10:57:22.629Z,32.40
2018-08-03T10:59:28.558Z,31.60
2018-08-03T11:01:33.604Z,31.70
2018-08-03T11:03:39.613Z,31.50
2018-08-03T11:05:45.864Z,31.10
2018-08-03T11:07:51.471Z,31.60
2018-08-03T11:10:11.196Z,31.80
2018-08-03T11:12:24.870Z,32.50
2018-08-03T11:30:23.352Z,32.10
2018-08-03T11:32:29.291Z,28.60
2018-08-03T11:34:33.371Z,29.60
2018-08-03T11:36:42.056Z,29.70
2018-08-03T11:38:46.496Z,29.60
2018-08-03T11:40:50.481Z,29.50
2018-08-03T11:42:55.786Z,29.90
2018-08-03T11:44:59.813Z,29.70
2018-08-03T11:47:03.756Z,29.70
2018-08-03T11:49:09.870Z,29.60
2018-08-03T11:51:15.393Z,29.70
2018-08-03T11:55:34.406Z,29.60
2018-08-03T11:57:40.047Z,29.40
2018-08-03T11:59:44.808Z,28.20
2018-08-03T12:01:49.414Z,28.10
2018-08-03T12:03:55.216Z,28.50
2018-08-03T12:06:00.275Z,28.20
2018-08-03T12:08:06.619Z,27.40
2018-08-03T12:10:11.210Z,27.50
2018-08-03T12:12:16.937Z,26.80
2018-08-03T12:14:24.795Z,26.80
2018-08-03T12:16:33.143Z,27.30
2018-08-03T12:18:40.764Z,27.70
2018-08-03T12:20:47.509Z,27.60
2018-08-03T12:22:53.196Z,28.00
2018-08-03T12:24:57.175Z,28.40
2018-08-03T12:27:01.448Z,27.90
2018-08-03T12:29:05.565Z,27.40
2018-08-03T12:31:13.839Z,26.70
2018-08-03T12:33:20.220Z,26.20
2018-08-03T12:35:24.186Z,26.10
2018-08-03T12:37:29.300Z,27.10
2018-08-03T12:39:34.340Z,26.90
2018-08-03T12:41:38.775Z,27.50
2018-08-03T12:43:44.343Z,27.20
2018-08-03T12:45:51.802Z,27.10
2018-08-03T12:47:58.140Z,27.20
2018-08-03T12:50:06.620Z,27.10
2018-08-03T12:52:15.643Z,27.40
2018-08-03T12:54:21.814Z,27.40
2018-08-03T12:56:28.341Z,27.40
2018-08-03T12:58:41.825Z,27.20
2018-08-03T13:03:08.233Z,26.90
2018-08-03T13:05:15.104Z,26.60
2018-08-03T13:07:24.799Z,26.60
2018-08-03T13:09:30.465Z,26.40
2018-08-03T13:11:34.869Z,26.00
2018-08-03T13:13:40.832Z,25.00
2018-08-03T13:15:44.788Z,24.80
2018-08-03T13:17:48.860Z,25.20
2018-08-03T13:19:52.970Z,25.40
2018-08-03T13:21:57.427Z,25.30
2018-08-03T13:24:05.313Z,25.40
2018-08-03T13:26:09.996Z,25.30
2018-08-03T13:28:15.419Z,25.50
2018-08-03T13:30:19.802Z,25.40
2018-08-03T13:32:24.973Z,25.20
2018-08-03T13:34:29.002Z,25.30
2018-08-03T13:36:33.800Z,25.50
2018-08-03T13:38:39.333Z,25.80
2018-08-03T13:40:44.836Z,25.50
2018-08-03T13:42:49.751Z,25.00
2018-08-03T13:44:53.809Z,24.60
2018-08-03T13:46:57.749Z,23.70
2018-08-03T13:49:02.355Z,23.90
2018-08-03T13:51:06.923Z,24.10
2018-08-03T13:55:29.550Z,24.40
2018-08-03T13:57:37.389Z,24.00
2018-08-03T13:59:43.371Z,23.80
2018-08-03T14:02:00.786Z,24.10
2018-08-03T14:04:06.368Z,24.20
2018-08-03T14:06:14.710Z,24.20
2018-08-03T14:08:22.157Z,24.40
2018-08-03T14:10:27.529Z,24.40
2018-08-03T14:12:35.768Z,24.40
2018-08-03T14:14:40.875Z,24.60
2018-08-03T14:16:45.695Z,24.50
2018-08-03T14:18:51.750Z,24.40
2018-08-03T14:20:58.403Z,24.20
2018-08-03T14:23:09.757Z,23.90
2018-08-03T14:25:15.472Z,24.10
2018-08-03T14:27:21.296Z,23.70
2018-08-03T14:29:26.459Z,23.50
2018-08-03T14:31:31.451Z,23.30
2018-08-03T14:33:36.201Z,22.80
2018-08-03T14:35:41.976Z,22.70
2018-08-03T14:37:50.793Z,22.60
2018-08-03T14:39:56.399Z,22.50
2018-08-03T14:42:00.338Z,22.00
2018-08-03T14:46:09.641Z,21.80
2018-08-03T14:48:16.629Z,21.70
2018-08-03T14:50:21.271Z,21.60
2018-08-03T14:52:26.357Z,21.40
2018-08-03T14:54:30.318Z,21.90
2018-08-03T14:56:34.409Z,21.00
2018-08-03T14:58:39.360Z,21.30
2018-08-03T15:00:43.592Z,21.60
2018-08-03T15:02:49.470Z,21.50
2018-08-03T15:04:57.006Z,21.40
2018-08-03T15:07:01.693Z,21.40
2018-08-03T15:09:09.687Z,21.20
2018-08-03T15:11:14.069Z,21.80
2018-08-03T15:13:22.356Z,21.90
2018-08-03T15:15:27.115Z,22.00
2018-08-03T15:17:31.466Z,21.70
2018-08-03T15:19:35.464Z,21.70
2018-08-03T15:21:40.531Z,21.90
2018-08-03T15:23:48.381Z,21.90
2018-08-03T15:25:55.339Z,22.30
2018-08-03T15:28:03.237Z,22.50
2018-08-03T15:30:10.497Z,22.50
2018-08-03T15:32:15.779Z,22.10
2018-08-03T15:34:21.997Z,22.20
2018-08-03T15:38:38.828Z,21.90
2018-08-03T15:42:47.944Z,21.10
2018-08-03T15:44:51.996Z,20.50
2018-08-03T15:46:57.402Z,20.50
2018-08-03T15:49:03.981Z,20.30
2018-08-03T15:51:16.181Z,20.60
2018-08-03T15:53:20.694Z,20.80
2018-08-03T15:55:28.178Z,20.70
2018-08-03T15:57:34.185Z,20.60
2018-08-03T16:00:16.419Z,20.30
2018-08-03T16:02:27.045Z,20.30
2018-08-03T16:04:33.855Z,20.20
2018-08-03T16:06:40.511Z,20.00
2018-08-03T16:08:46.127Z,19.90
2018-08-03T16:10:52.174Z,19.80
2018-08-03T16:12:57.803Z,19.70
2018-08-03T16:15:05.304Z,19.50
2018-08-03T16:17:12.991Z,19.40
2018-08-03T16:19:17.563Z,19.20
2018-08-03T16:21:24.887Z,19.10
2018-08-03T16:23:36.885Z,18.90
2018-08-03T16:25:42.017Z,18.80
2018-08-03T16:27:48.095Z,18.60
2018-08-03T16:29:52.180Z,18.80
2018-08-03T16:31:58.020Z,18.70
2018-08-03T16:34:04.688Z,19.00
2018-08-03T16:36:09.344Z,19.00
2018-08-03T16:38:13.473Z,19.30
2018-08-03T16:40:21.812Z,19.40
2018-08-03T16:42:31.683Z,19.70
2018-08-03T16:44:35.775Z,19.80
2018-08-03T16:46:40.276Z,20.00
2018-08-03T16:50:57.244Z,20.90
2018-08-03T16:53:02.028Z,20.90
2018-08-03T16:55:06.496Z,21.30
2018-08-03T16:57:12.080Z,21.20
2018-08-03T16:59:23.063Z,21.20
2018-08-03T17:04:02.212Z,20.90
2018-08-03T17:06:07.252Z,21.10
2018-08-03T17:08:13.049Z,20.80
2018-08-03T17:10:18.148Z,21.10
2018-08-03T17:12:32.632Z,21.00
2018-08-03T17:14:49.340Z,21.10
2018-08-03T17:16:56.492Z,20.90
2018-08-03T17:19:05.541Z,20.60
2018-08-03T17:21:10.882Z,20.60
2018-08-03T17:23:16.549Z,21.60
2018-08-03T17:25:23.349Z,21.00
2018-08-03T17:27:32.992Z,21.00
2018-08-03T17:29:38.582Z,21.10
2018-08-03T17:31:42.908Z,20.80
2018-08-03T17:33:47.063Z,20.50
2018-08-03T17:35:52.117Z,20.60
2018-08-03T17:37:59.991Z,20.70
2018-08-03T17:40:04.372Z,20.50
2018-08-03T17:42:08.956Z,20.70
2018-08-03T17:44:13.313Z,20.90
2018-08-03T17:46:18.980Z,20.90
2018-08-03T17:48:27.239Z,20.90
2018-08-03T17:50:31.643Z,20.90
2018-08-03T17:52:37.239Z,21.10
2018-08-03T17:54:42.096Z,21.30
2018-08-03T17:58:53.041Z,22.60
2018-08-03T18:00:59.369Z,23.40
2018-08-03T18:03:04.656Z,24.10
2018-08-03T18:05:08.774Z,24.50
2018-08-03T18:07:13.296Z,25.10
2018-08-03T18:09:18.067Z,25.20
2018-08-03T18:11:22.134Z,25.20
2018-08-03T18:13:26.319Z,25.70
2018-08-03T18:15:32.646Z,26.00
2018-08-03T18:17:37.214Z,26.40
2018-08-03T18:19:45.636Z,26.70
2018-08-03T18:21:51.872Z,27.00
2018-08-03T18:23:57.103Z,27.50
2018-08-03T18:26:01.875Z,27.70
2018-08-03T18:28:07.620Z,28.00
2018-08-03T18:30:18.242Z,27.90
2018-08-03T18:32:23.410Z,28.00
2018-08-03T18:34:28.347Z,28.00
2018-08-03T18:36:33.344Z,28.10
2018-08-03T18:38:38.335Z,28.30
2018-08-03T18:40:45.050Z,28.40
2018-08-03T18:42:51.368Z,28.70
2018-08-03T18:44:57.970Z,28.70
2018-08-03T18:47:03.828Z,29.50
2018-08-03T18:49:09.124Z,29.30
2018-08-03T18:51:14.786Z,29.90
2018-08-03T18:53:19.651Z,30.60
2018-08-03T18:55:25.560Z,32.10
2018-08-03T18:57:33.165Z,32.50
2018-08-03T18:59:37.285Z,32.80
2018-08-03T19:01:44.334Z,33.30
2018-08-03T19:03:53.502Z,33.70
2018-08-03T19:06:01.086Z,33.90
2018-08-03T19:08:05.177Z,33.70
2018-08-03T19:10:09.277Z,33.80
2018-08-03T19:14:26.767Z,33.80
2018-08-03T19:16:31.679Z,33.90
2018-08-03T19:18:36.700Z,33.90
2018-08-03T19:20:41.981Z,34.30
2018-08-03T19:22:46.122Z,34.60
2018-08-03T19:24:50.332Z,34.60
2018-08-03T19:29:06.472Z,34.70
2018-08-03T19:31:11.292Z,34.80
2018-08-03T19:33:18.304Z,34.90
2018-08-03T19:35:23.865Z,34.90
2018-08-03T19:37:28.228Z,35.00
2018-08-03T19:39:32.244Z,35.10
2018-08-03T19:41:38.175Z,35.30
2018-08-03T19:43:48.151Z,35.60
2018-08-03T19:45:54.538Z,35.70
2018-08-03T19:48:00.147Z,35.80
2018-08-03T19:50:08.238Z,35.80
2018-08-03T19:52:21.110Z,36.60
2018-08-03T19:54:27.677Z,36.10
2018-08-03T19:56:39.911Z,36.30
2018-08-03T19:58:45.548Z,36.30
2018-08-03T20:00:51.781Z,36.30
2018-08-03T20:02:58.220Z,36.30
2018-08-03T20:05:04.306Z,36.30
2018-08-03T20:07:09.160Z,36.50
2018-08-03T20:11:22.687Z,36.90
2018-08-03T20:13:27.837Z,36.90
2018-08-03T20:15:34.529Z,37.30
2018-08-03T20:17:40.235Z,37.40
2018-08-03T20:19:52.600Z,37.60
2018-08-03T20:21:59.105Z,37.70
2018-08-03T20:24:06.412Z,37.90
2018-08-03T20:26:12.164Z,37.70
2018-08-03T20:30:25.741Z,38.00
2018-08-03T20:32:30.604Z,37.80
2018-08-03T20:34:37.490Z,37.90
2018-08-03T20:36:41.795Z,38.00
2018-08-03T20:38:47.543Z,38.00
2018-08-03T20:40:51.627Z,38.30
2018-08-03T20:42:57.327Z,38.60
2018-08-03T20:45:01.420Z,38.80
2018-08-03T20:47:05.779Z,38.70
2018-08-03T20:49:10.785Z,38.60
2018-08-03T20:51:14.788Z,38.50
2018-08-03T20:53:22.723Z,39.20
2018-08-03T20:55:28.735Z,38.70
2018-08-03T20:57:34.128Z,38.80
2018-08-03T20:59:39.697Z,38.80
2018-08-03T21:01:44.729Z,38.70
2018-08-03T21:03:48.975Z,38.70
2018-08-03T21:07:57.679Z,39.10
2018-08-03T21:10:03.731Z,38.50
2018-08-03T21:12:09.179Z,38.50
2018-08-03T21:14:16.477Z,38.40
2018-08-03T21:16:25.277Z,38.60
2018-08-03T21:18:31.238Z,38.50
2018-08-03T21:20:36.757Z,38.60
2018-08-03T21:22:40.719Z,38.60
2018-08-03T21:26:51.765Z,38.60
2018-08-03T21:28:55.889Z,38.80
2018-08-03T21:31:01.841Z,38.90
2018-08-03T21:33:08.880Z,39.00
2018-08-03T21:35:15.504Z,39.00
2018-08-03T21:37:21.217Z,38.80
2018-08-03T21:39:26.614Z,38.80
2018-08-03T21:41:32.250Z,38.90
2018-08-03T21:43:41.440Z,38.70
2018-08-03T21:45:45.731Z,38.70
2018-08-03T21:47:50.371Z,38.50
2018-08-03T21:49:54.558Z,38.40
2018-08-03T21:52:04.202Z,38.40
2018-08-03T21:54:50.425Z,38.20
2018-08-03T21:56:55.941Z,38.20
2018-08-03T21:59:04.365Z,38.30
2018-08-03T22:01:13.985Z,38.30
2018-08-03T22:03:19.021Z,38.10
2018-08-03T22:06:06.767Z,38.00
2018-08-03T22:10:18.624Z,37.70
2018-08-03T22:12:24.285Z,37.60
2018-08-03T22:14:46.981Z,37.60
2018-08-03T22:16:51.649Z,37.60
2018-08-03T22:18:56.395Z,37.60
2018-08-03T22:21:01.560Z,37.80
2018-08-03T22:23:12.626Z,38.10
2018-08-03T22:25:30.373Z,38.10
2018-08-03T22:27:38.531Z,38.10
2018-08-03T22:29:45.625Z,38.10
2018-08-03T22:31:50.700Z,38.10
2018-08-03T22:33:55.621Z,38.20
2018-08-03T22:36:05.273Z,38.40
2018-08-03T22:38:10.365Z,38.50
2018-08-03T22:40:32.752Z,38.70
2018-08-03T22:42:39.244Z,38.90
2018-08-03T22:44:46.304Z,39.20
2018-08-03T22:47:06.618Z,39.30
2018-08-03T22:49:13.274Z,39.50
2018-08-03T22:56:09.321Z,40.30
2018-08-03T22:58:14.575Z,40.80
2018-08-03T23:02:38.336Z,41.00
2018-08-03T23:04:52.060Z,41.70
2018-08-03T23:14:12.749Z,43.00
2018-08-03T23:18:23.705Z,43.30
2018-08-03T23:20:28.452Z,43.30
2018-08-03T23:22:34.482Z,43.90
2018-08-03T23:29:29.927Z,44.40
2018-08-03T23:31:34.349Z,44.40
2018-08-03T23:33:38.699Z,44.90
2018-08-03T23:35:44.129Z,45.30
2018-08-03T23:37:49.485Z,45.20
2018-08-03T23:40:03.677Z,45.40
2018-08-03T23:42:11.082Z,45.60
2018-08-03T23:44:15.439Z,46.40
2018-08-03T23:48:25.715Z,47.10
2018-08-03T23:50:29.780Z,47.10
2018-08-03T23:52:35.405Z,47.30
2018-08-03T23:54:40.680Z,47.10
2018-08-03T23:56:45.276Z,47.10
2018-08-03T23:58:49.645Z,47.40
